sensor_id;sensor_type;location;lat;lon;timestamp;P1;durP1;ratioP1;P2;durP2;ratioP2
49852;SDS011;35751;48.072;11.688;2023-06-22T00:00:50;5.28;;;3.35;;
49852;SDS011;35751;48.072;11.688;2023-06-22T00:03:17;5.57;;;3.50;;
49852;SDS011;35751;48.072;11.688;2023-06-22T00:05:43;6.53;;;3.33;;
49852;SDS011;35751;48.072;11.688;2023-06-22T00:08:08;8.45;;;3.03;;
49852;SDS011;35751;48.072;11.688;2023-06-22T00:10:33;5.97;;;3.50;;
49852;SDS011;35751;48.072;11.688;2023-06-22T00:12:59;6.38;;;3.30;;
49852;SDS011;35751;48.072;11.688;2023-06-22T00:15:25;7.70;;;3.65;;
49852;SDS011;35751;48.072;11.688;2023-06-22T00:17:50;11.52;;;4.65;;
49852;SDS011;35751;48.072;11.688;2023-06-22T00:20:16;6.20;;;4.30;;
49852;SDS011;35751;48.072;11.688;2023-06-22T00:22:43;8.40;;;4.22;;
49852;SDS011;35751;48.072;11.688;2023-06-22T00:25:08;12.60;;;5.53;;
49852;SDS011;35751;48.072;11.688;2023-06-22T00:27:37;6.10;;;3.47;;
49852;SDS011;35751;48.072;11.688;2023-06-22T00:30:02;7.63;;;3.38;;
49852;SDS011;35751;48.072;11.688;2023-06-22T00:32:31;12.40;;;3.95;;
49852;SDS011;35751;48.072;11.688;2023-06-22T00:34:59;8.77;;;3.47;;
49852;SDS011;35751;48.072;11.688;2023-06-22T00:37:25;7.40;;;4.25;;
49852;SDS011;35751;48.072;11.688;2023-06-22T00:39:51;6.85;;;3.92;;
49852;SDS011;35751;48.072;11.688;2023-06-22T00:42:16;6.90;;;3.00;;
49852;SDS011;35751;48.072;11.688;2023-06-22T00:44:42;6.30;;;3.55;;
49852;SDS011;35751;48.072;11.688;2023-06-22T00:47:08;5.80;;;3.70;;
49852;SDS011;35751;48.072;11.688;2023-06-22T00:49:36;7.05;;;3.20;;
49852;SDS011;35751;48.072;11.688;2023-06-22T00:52:02;7.45;;;3.80;;
49852;SDS011;35751;48.072;11.688;2023-06-22T00:54:27;9.30;;;4.10;;
49852;SDS011;35751;48.072;11.688;2023-06-22T00:56:53;8.18;;;4.20;;
49852;SDS011;35751;48.072;11.688;2023-06-22T00:59:21;8.02;;;3.65;;
49852;SDS011;35751;48.072;11.688;2023-06-22T01:01:46;8.00;;;3.15;;
49852;SDS011;35751;48.072;11.688;2023-06-22T01:04:12;8.48;;;3.80;;
49852;SDS011;35751;48.072;11.688;2023-06-22T01:06:45;6.55;;;3.53;;
49852;SDS011;35751;48.072;11.688;2023-06-22T01:09:14;11.82;;;3.53;;
49852;SDS011;35751;48.072;11.688;2023-06-22T01:12:02;7.43;;;4.13;;
49852;SDS011;35751;48.072;11.688;2023-06-22T01:14:34;6.18;;;3.50;;
49852;SDS011;35751;48.072;11.688;2023-06-22T01:17:03;5.88;;;3.33;;
49852;SDS011;35751;48.072;11.688;2023-06-22T01:22:13;6.78;;;3.90;;
49852;SDS011;35751;48.072;11.688;2023-06-22T01:27:52;5.75;;;3.90;;
49852;SDS011;35751;48.072;11.688;2023-06-22T01:30:21;11.73;;;3.95;;
49852;SDS011;35751;48.072;11.688;2023-06-22T01:32:47;4.38;;;3.30;;
49852;SDS011;35751;48.072;11.688;2023-06-22T01:35:13;6.93;;;4.15;;
49852;SDS011;35751;48.072;11.688;2023-06-22T01:37:39;8.57;;;4.15;;
49852;SDS011;35751;48.072;11.688;2023-06-22T01:40:04;11.85;;;3.92;;
49852;SDS011;35751;48.072;11.688;2023-06-22T01:42:31;6.40;;;3.80;;
49852;SDS011;35751;48.072;11.688;2023-06-22T01:45:03;5.90;;;3.90;;
49852;SDS011;35751;48.072;11.688;2023-06-22T01:47:29;10.07;;;4.43;;
49852;SDS011;35751;48.072;11.688;2023-06-22T01:49:55;11.82;;;4.80;;
49852;SDS011;35751;48.072;11.688;2023-06-22T01:52:20;9.43;;;3.67;;
49852;SDS011;35751;48.072;11.688;2023-06-22T01:54:46;10.85;;;3.53;;
49852;SDS011;35751;48.072;11.688;2023-06-22T01:57:11;7.22;;;4.43;;
49852;SDS011;35751;48.072;11.688;2023-06-22T01:59:39;11.32;;;4.82;;
49852;SDS011;35751;48.072;11.688;2023-06-22T02:02:09;11.38;;;4.38;;
49852;SDS011;35751;48.072;11.688;2023-06-22T02:05:09;9.05;;;4.90;;
49852;SDS011;35751;48.072;11.688;2023-06-22T02:07:32;11.23;;;5.28;;
49852;SDS011;35751;48.072;11.688;2023-06-22T02:09:59;8.32;;;5.68;;
49852;SDS011;35751;48.072;11.688;2023-06-22T02:12:27;9.98;;;5.50;;
49852;SDS011;35751;48.072;11.688;2023-06-22T02:14:53;14.18;;;6.38;;
49852;SDS011;35751;48.072;11.688;2023-06-22T02:17:19;11.00;;;5.00;;
49852;SDS011;35751;48.072;11.688;2023-06-22T02:19:44;15.93;;;6.78;;
49852;SDS011;35751;48.072;11.688;2023-06-22T02:22:13;10.25;;;6.32;;
49852;SDS011;35751;48.072;11.688;2023-06-22T02:24:38;9.52;;;6.05;;
49852;SDS011;35751;48.072;11.688;2023-06-22T02:27:04;12.13;;;6.25;;
49852;SDS011;35751;48.072;11.688;2023-06-22T02:29:32;9.13;;;5.47;;
49852;SDS011;35751;48.072;11.688;2023-06-22T02:31:57;13.75;;;6.15;;
49852;SDS011;35751;48.072;11.688;2023-06-22T02:34:23;9.07;;;5.28;;
49852;SDS011;35751;48.072;11.688;2023-06-22T02:36:48;12.45;;;6.57;;
49852;SDS011;35751;48.072;11.688;2023-06-22T02:39:20;12.80;;;5.57;;
49852;SDS011;35751;48.072;11.688;2023-06-22T02:41:47;12.50;;;6.05;;
49852;SDS011;35751;48.072;11.688;2023-06-22T02:44:13;10.40;;;6.20;;
49852;SDS011;35751;48.072;11.688;2023-06-22T02:46:38;9.75;;;6.43;;
49852;SDS011;35751;48.072;11.688;2023-06-22T02:49:04;13.80;;;5.35;;
49852;SDS011;35751;48.072;11.688;2023-06-22T02:51:30;9.25;;;6.45;;
49852;SDS011;35751;48.072;11.688;2023-06-22T02:53:59;11.63;;;5.78;;
49852;SDS011;35751;48.072;11.688;2023-06-22T02:56:24;8.60;;;4.57;;
49852;SDS011;35751;48.072;11.688;2023-06-22T02:58:49;6.45;;;4.60;;
49852;SDS011;35751;48.072;11.688;2023-06-22T03:01:15;6.85;;;4.57;;
49852;SDS011;35751;48.072;11.688;2023-06-22T03:03:40;9.93;;;5.70;;
49852;SDS011;35751;48.072;11.688;2023-06-22T03:06:05;9.25;;;4.88;;
49852;SDS011;35751;48.072;11.688;2023-06-22T03:08:31;10.05;;;5.35;;
49852;SDS011;35751;48.072;11.688;2023-06-22T03:10:56;8.93;;;5.00;;
49852;SDS011;35751;48.072;11.688;2023-06-22T03:13:21;10.30;;;5.10;;
49852;SDS011;35751;48.072;11.688;2023-06-22T03:15:47;7.82;;;5.10;;
49852;SDS011;35751;48.072;11.688;2023-06-22T03:18:12;15.10;;;6.03;;
49852;SDS011;35751;48.072;11.688;2023-06-22T03:20:38;11.88;;;5.75;;
49852;SDS011;35751;48.072;11.688;2023-06-22T03:23:03;13.05;;;6.07;;
49852;SDS011;35751;48.072;11.688;2023-06-22T03:25:29;12.90;;;5.60;;
49852;SDS011;35751;48.072;11.688;2023-06-22T03:27:55;7.78;;;5.43;;
49852;SDS011;35751;48.072;11.688;2023-06-22T03:30:20;8.75;;;5.10;;
49852;SDS011;35751;48.072;11.688;2023-06-22T03:32:45;11.45;;;6.88;;
49852;SDS011;35751;48.072;11.688;2023-06-22T03:35:11;10.50;;;5.90;;
49852;SDS011;35751;48.072;11.688;2023-06-22T03:37:38;11.20;;;6.13;;
49852;SDS011;35751;48.072;11.688;2023-06-22T03:40:04;8.88;;;5.55;;
49852;SDS011;35751;48.072;11.688;2023-06-22T03:42:30;8.75;;;5.88;;
49852;SDS011;35751;48.072;11.688;2023-06-22T03:44:56;10.88;;;5.93;;
49852;SDS011;35751;48.072;11.688;2023-06-22T03:47:22;12.90;;;6.78;;
49852;SDS011;35751;48.072;11.688;2023-06-22T03:49:47;12.32;;;5.93;;
49852;SDS011;35751;48.072;11.688;2023-06-22T03:52:12;12.48;;;6.43;;
49852;SDS011;35751;48.072;11.688;2023-06-22T03:54:38;12.60;;;6.28;;
49852;SDS011;35751;48.072;11.688;2023-06-22T03:57:03;11.73;;;5.75;;
49852;SDS011;35751;48.072;11.688;2023-06-22T03:59:29;11.02;;;5.88;;
49852;SDS011;35751;48.072;11.688;2023-06-22T04:01:54;9.45;;;6.25;;
49852;SDS011;35751;48.072;11.688;2023-06-22T04:04:19;10.82;;;5.78;;
49852;SDS011;35751;48.072;11.688;2023-06-22T04:06:45;9.18;;;6.10;;
49852;SDS011;35751;48.072;11.688;2023-06-22T04:09:10;12.55;;;8.20;;
49852;SDS011;35751;48.072;11.688;2023-06-22T04:11:36;10.18;;;7.28;;
49852;SDS011;35751;48.072;11.688;2023-06-22T04:14:01;9.52;;;6.60;;
49852;SDS011;35751;48.072;11.688;2023-06-22T04:16:26;13.30;;;6.68;;
49852;SDS011;35751;48.072;11.688;2023-06-22T04:18:55;10.07;;;6.47;;
49852;SDS011;35751;48.072;11.688;2023-06-22T04:21:20;10.07;;;5.60;;
49852;SDS011;35751;48.072;11.688;2023-06-22T04:23:48;12.05;;;6.30;;
49852;SDS011;35751;48.072;11.688;2023-06-22T04:26:13;10.40;;;6.50;;
49852;SDS011;35751;48.072;11.688;2023-06-22T04:28:39;10.05;;;6.60;;
49852;SDS011;35751;48.072;11.688;2023-06-22T04:31:05;13.35;;;7.35;;
49852;SDS011;35751;48.072;11.688;2023-06-22T04:33:30;9.90;;;7.30;;
49852;SDS011;35751;48.072;11.688;2023-06-22T04:35:56;10.18;;;6.68;;
49852;SDS011;35751;48.072;11.688;2023-06-22T04:38:22;12.13;;;7.78;;
49852;SDS011;35751;48.072;11.688;2023-06-22T04:40:47;14.27;;;7.68;;
49852;SDS011;35751;48.072;11.688;2023-06-22T04:43:13;9.52;;;6.43;;
49852;SDS011;35751;48.072;11.688;2023-06-22T04:45:38;10.55;;;6.65;;
49852;SDS011;35751;48.072;11.688;2023-06-22T04:48:04;14.00;;;7.50;;
49852;SDS011;35751;48.072;11.688;2023-06-22T04:50:30;11.50;;;7.13;;
49852;SDS011;35751;48.072;11.688;2023-06-22T04:52:55;11.80;;;6.63;;
49852;SDS011;35751;48.072;11.688;2023-06-22T04:55:21;9.82;;;7.03;;
49852;SDS011;35751;48.072;11.688;2023-06-22T04:57:46;13.60;;;6.70;;
49852;SDS011;35751;48.072;11.688;2023-06-22T05:00:16;12.90;;;8.15;;
49852;SDS011;35751;48.072;11.688;2023-06-22T05:02:47;11.75;;;6.63;;
49852;SDS011;35751;48.072;11.688;2023-06-22T05:05:12;10.73;;;6.20;;
49852;SDS011;35751;48.072;11.688;2023-06-22T05:07:42;13.30;;;7.75;;
49852;SDS011;35751;48.072;11.688;2023-06-22T05:10:08;18.17;;;9.32;;
49852;SDS011;35751;48.072;11.688;2023-06-22T05:12:35;15.82;;;8.30;;
49852;SDS011;35751;48.072;11.688;2023-06-22T05:15:01;11.52;;;7.13;;
49852;SDS011;35751;48.072;11.688;2023-06-22T05:17:26;17.42;;;7.55;;
49852;SDS011;35751;48.072;11.688;2023-06-22T05:19:52;9.05;;;5.68;;
49852;SDS011;35751;48.072;11.688;2023-06-22T05:22:17;18.73;;;8.43;;
49852;SDS011;35751;48.072;11.688;2023-06-22T05:24:43;16.83;;;7.75;;
49852;SDS011;35751;48.072;11.688;2023-06-22T05:27:09;14.00;;;7.50;;
49852;SDS011;35751;48.072;11.688;2023-06-22T05:29:35;11.70;;;7.13;;
49852;SDS011;35751;48.072;11.688;2023-06-22T05:32:04;15.90;;;7.15;;
49852;SDS011;35751;48.072;11.688;2023-06-22T05:34:29;12.75;;;6.82;;
49852;SDS011;35751;48.072;11.688;2023-06-22T05:36:55;15.50;;;6.82;;
49852;SDS011;35751;48.072;11.688;2023-06-22T05:39:20;11.30;;;6.60;;
49852;SDS011;35751;48.072;11.688;2023-06-22T05:41:48;11.82;;;6.63;;
49852;SDS011;35751;48.072;11.688;2023-06-22T05:44:13;17.35;;;7.50;;
49852;SDS011;35751;48.072;11.688;2023-06-22T05:46:42;12.40;;;7.32;;
49852;SDS011;35751;48.072;11.688;2023-06-22T05:49:09;10.40;;;6.55;;
49852;SDS011;35751;48.072;11.688;2023-06-22T05:51:35;14.05;;;6.72;;
49852;SDS011;35751;48.072;11.688;2023-06-22T05:54:00;11.50;;;7.28;;
49852;SDS011;35751;48.072;11.688;2023-06-22T05:56:26;11.13;;;6.45;;
49852;SDS011;35751;48.072;11.688;2023-06-22T05:58:51;16.60;;;7.32;;
49852;SDS011;35751;48.072;11.688;2023-06-22T06:01:16;14.23;;;7.22;;
49852;SDS011;35751;48.072;11.688;2023-06-22T06:03:45;16.92;;;6.25;;
49852;SDS011;35751;48.072;11.688;2023-06-22T06:06:12;12.48;;;7.13;;
49852;SDS011;35751;48.072;11.688;2023-06-22T06:08:38;12.93;;;6.97;;
49852;SDS011;35751;48.072;11.688;2023-06-22T06:11:04;9.93;;;6.63;;
49852;SDS011;35751;48.072;11.688;2023-06-22T06:13:29;9.02;;;6.28;;
49852;SDS011;35751;48.072;11.688;2023-06-22T06:15:55;11.30;;;6.20;;
49852;SDS011;35751;48.072;11.688;2023-06-22T06:18:21;12.65;;;6.38;;
49852;SDS011;35751;48.072;11.688;2023-06-22T06:20:46;16.05;;;7.50;;
49852;SDS011;35751;48.072;11.688;2023-06-22T06:23:11;12.18;;;6.53;;
49852;SDS011;35751;48.072;11.688;2023-06-22T06:25:37;11.45;;;6.70;;
49852;SDS011;35751;48.072;11.688;2023-06-22T06:28:02;15.50;;;7.00;;
49852;SDS011;35751;48.072;11.688;2023-06-22T06:30:28;14.50;;;6.55;;
49852;SDS011;35751;48.072;11.688;2023-06-22T06:32:53;12.90;;;6.80;;
49852;SDS011;35751;48.072;11.688;2023-06-22T06:35:19;12.60;;;6.70;;
49852;SDS011;35751;48.072;11.688;2023-06-22T06:37:45;17.23;;;6.50;;
49852;SDS011;35751;48.072;11.688;2023-06-22T06:40:11;17.35;;;7.47;;
49852;SDS011;35751;48.072;11.688;2023-06-22T06:42:38;16.75;;;7.22;;
49852;SDS011;35751;48.072;11.688;2023-06-22T06:45:06;14.48;;;7.07;;
49852;SDS011;35751;48.072;11.688;2023-06-22T06:47:32;10.38;;;6.38;;
49852;SDS011;35751;48.072;11.688;2023-06-22T06:49:58;12.18;;;8.35;;
49852;SDS011;35751;48.072;11.688;2023-06-22T06:52:23;14.23;;;6.93;;
49852;SDS011;35751;48.072;11.688;2023-06-22T06:54:48;9.98;;;6.25;;
49852;SDS011;35751;48.072;11.688;2023-06-22T06:57:20;11.77;;;7.10;;
49852;SDS011;35751;48.072;11.688;2023-06-22T06:59:45;10.02;;;7.03;;
49852;SDS011;35751;48.072;11.688;2023-06-22T07:05:33;10.38;;;7.68;;
49852;SDS011;35751;48.072;11.688;2023-06-22T07:07:58;11.10;;;6.63;;
49852;SDS011;35751;48.072;11.688;2023-06-22T07:10:24;15.32;;;8.15;;
49852;SDS011;35751;48.072;11.688;2023-06-22T07:12:52;11.23;;;6.70;;
49852;SDS011;35751;48.072;11.688;2023-06-22T07:15:18;13.15;;;6.32;;
49852;SDS011;35751;48.072;11.688;2023-06-22T07:17:43;13.20;;;8.38;;
49852;SDS011;35751;48.072;11.688;2023-06-22T07:20:09;11.13;;;6.78;;
49852;SDS011;35751;48.072;11.688;2023-06-22T07:22:38;10.48;;;6.50;;
49852;SDS011;35751;48.072;11.688;2023-06-22T07:25:04;13.23;;;6.93;;
49852;SDS011;35751;48.072;11.688;2023-06-22T07:27:34;17.60;;;8.23;;
49852;SDS011;35751;48.072;11.688;2023-06-22T07:30:03;17.02;;;7.30;;
49852;SDS011;35751;48.072;11.688;2023-06-22T07:32:29;11.80;;;7.13;;
49852;SDS011;35751;48.072;11.688;2023-06-22T07:34:54;13.77;;;6.35;;
49852;SDS011;35751;48.072;11.688;2023-06-22T07:37:20;14.23;;;7.65;;
49852;SDS011;35751;48.072;11.688;2023-06-22T07:39:45;21.05;;;7.45;;
49852;SDS011;35751;48.072;11.688;2023-06-22T07:42:11;15.45;;;8.35;;
49852;SDS011;35751;48.072;11.688;2023-06-22T07:44:36;13.32;;;7.32;;
49852;SDS011;35751;48.072;11.688;2023-06-22T07:47:01;10.80;;;6.80;;
49852;SDS011;35751;48.072;11.688;2023-06-22T07:49:27;16.30;;;7.82;;
49852;SDS011;35751;48.072;11.688;2023-06-22T07:51:53;9.98;;;7.00;;
49852;SDS011;35751;48.072;11.688;2023-06-22T07:54:18;15.57;;;8.82;;
49852;SDS011;35751;48.072;11.688;2023-06-22T07:56:44;15.43;;;7.35;;
49852;SDS011;35751;48.072;11.688;2023-06-22T07:59:09;12.82;;;7.00;;
49852;SDS011;35751;48.072;11.688;2023-06-22T08:01:34;12.18;;;6.18;;
49852;SDS011;35751;48.072;11.688;2023-06-22T08:04:00;19.40;;;8.07;;
49852;SDS011;35751;48.072;11.688;2023-06-22T08:06:25;16.58;;;8.23;;
49852;SDS011;35751;48.072;11.688;2023-06-22T08:08:50;19.85;;;8.57;;
49852;SDS011;35751;48.072;11.688;2023-06-22T08:11:17;17.00;;;9.30;;
49852;SDS011;35751;48.072;11.688;2023-06-22T08:13:43;12.25;;;7.45;;
49852;SDS011;35751;48.072;11.688;2023-06-22T08:16:08;14.25;;;7.72;;
49852;SDS011;35751;48.072;11.688;2023-06-22T08:18:33;13.63;;;7.65;;
49852;SDS011;35751;48.072;11.688;2023-06-22T08:20:59;17.80;;;7.68;;
49852;SDS011;35751;48.072;11.688;2023-06-22T08:23:24;20.85;;;8.13;;
49852;SDS011;35751;48.072;11.688;2023-06-22T08:25:50;13.75;;;7.53;;
49852;SDS011;35751;48.072;11.688;2023-06-22T08:28:15;19.05;;;8.50;;
49852;SDS011;35751;48.072;11.688;2023-06-22T08:30:41;13.25;;;7.00;;
49852;SDS011;35751;48.072;11.688;2023-06-22T08:33:06;15.10;;;6.90;;
49852;SDS011;35751;48.072;11.688;2023-06-22T08:35:31;11.30;;;6.85;;
49852;SDS011;35751;48.072;11.688;2023-06-22T08:37:57;15.82;;;6.82;;
49852;SDS011;35751;48.072;11.688;2023-06-22T08:40:23;12.55;;;7.28;;
49852;SDS011;35751;48.072;11.688;2023-06-22T08:42:49;14.05;;;7.93;;
49852;SDS011;35751;48.072;11.688;2023-06-22T08:45:14;23.27;;;9.27;;
49852;SDS011;35751;48.072;11.688;2023-06-22T08:47:40;14.32;;;7.22;;
49852;SDS011;35751;48.072;11.688;2023-06-22T08:50:07;26.23;;;9.93;;
49852;SDS011;35751;48.072;11.688;2023-06-22T08:52:33;15.38;;;7.30;;
49852;SDS011;35751;48.072;11.688;2023-06-22T08:54:59;18.23;;;7.63;;
49852;SDS011;35751;48.072;11.688;2023-06-22T08:57:27;12.32;;;7.05;;
49852;SDS011;35751;48.072;11.688;2023-06-22T08:59:52;14.15;;;7.70;;
49852;SDS011;35751;48.072;11.688;2023-06-22T09:02:18;15.15;;;6.97;;
49852;SDS011;35751;48.072;11.688;2023-06-22T09:04:45;13.70;;;6.88;;
49852;SDS011;35751;48.072;11.688;2023-06-22T09:07:11;41.15;;;9.35;;
49852;SDS011;35751;48.072;11.688;2023-06-22T09:09:36;10.15;;;6.25;;
49852;SDS011;35751;48.072;11.688;2023-06-22T09:12:02;17.77;;;6.72;;
49852;SDS011;35751;48.072;11.688;2023-06-22T09:14:27;12.38;;;6.68;;
49852;SDS011;35751;48.072;11.688;2023-06-22T09:16:53;13.70;;;6.22;;
49852;SDS011;35751;48.072;11.688;2023-06-22T09:19:18;12.10;;;6.72;;
49852;SDS011;35751;48.072;11.688;2023-06-22T09:21:43;35.08;;;9.32;;
49852;SDS011;35751;48.072;11.688;2023-06-22T09:24:09;11.63;;;7.13;;
49852;SDS011;35751;48.072;11.688;2023-06-22T09:26:34;18.80;;;6.95;;
49852;SDS011;35751;48.072;11.688;2023-06-22T09:28:59;10.45;;;6.30;;
49852;SDS011;35751;48.072;11.688;2023-06-22T09:31:25;16.25;;;7.40;;
49852;SDS011;35751;48.072;11.688;2023-06-22T09:33:53;13.80;;;7.63;;
49852;SDS011;35751;48.072;11.688;2023-06-22T09:36:19;11.57;;;6.55;;
49852;SDS011;35751;48.072;11.688;2023-06-22T09:38:45;8.32;;;6.22;;
49852;SDS011;35751;48.072;11.688;2023-06-22T09:41:11;12.32;;;7.22;;
49852;SDS011;35751;48.072;11.688;2023-06-22T09:43:36;14.27;;;7.20;;
49852;SDS011;35751;48.072;11.688;2023-06-22T09:46:01;13.43;;;7.20;;
49852;SDS011;35751;48.072;11.688;2023-06-22T09:48:27;11.73;;;5.95;;
49852;SDS011;35751;48.072;11.688;2023-06-22T09:50:54;13.50;;;7.85;;
49852;SDS011;35751;48.072;11.688;2023-06-22T09:53:19;13.55;;;6.80;;
49852;SDS011;35751;48.072;11.688;2023-06-22T09:55:45;12.88;;;6.53;;
49852;SDS011;35751;48.072;11.688;2023-06-22T09:58:10;13.90;;;8.10;;
49852;SDS011;35751;48.072;11.688;2023-06-22T10:00:35;10.63;;;6.32;;
49852;SDS011;35751;48.072;11.688;2023-06-22T10:03:01;11.85;;;6.97;;
49852;SDS011;35751;48.072;11.688;2023-06-22T10:05:26;16.80;;;7.25;;
49852;SDS011;35751;48.072;11.688;2023-06-22T10:07:51;12.50;;;7.68;;
49852;SDS011;35751;48.072;11.688;2023-06-22T10:10:17;13.35;;;6.03;;
49852;SDS011;35751;48.072;11.688;2023-06-22T10:12:45;17.42;;;7.18;;
49852;SDS011;35751;48.072;11.688;2023-06-22T10:15:11;8.93;;;5.90;;
49852;SDS011;35751;48.072;11.688;2023-06-22T10:17:37;14.85;;;7.00;;
49852;SDS011;35751;48.072;11.688;2023-06-22T10:20:02;13.75;;;6.75;;
49852;SDS011;35751;48.072;11.688;2023-06-22T10:22:37;15.35;;;6.95;;
49852;SDS011;35751;48.072;11.688;2023-06-22T10:25:06;10.77;;;6.60;;
49852;SDS011;35751;48.072;11.688;2023-06-22T10:27:32;12.13;;;7.10;;
49852;SDS011;35751;48.072;11.688;2023-06-22T10:29:57;15.00;;;7.40;;
49852;SDS011;35751;48.072;11.688;2023-06-22T10:32:22;8.02;;;5.90;;
49852;SDS011;35751;48.072;11.688;2023-06-22T10:34:48;12.57;;;6.65;;
49852;SDS011;35751;48.072;11.688;2023-06-22T10:37:13;11.63;;;5.78;;
49852;SDS011;35751;48.072;11.688;2023-06-22T10:39:38;15.18;;;6.40;;
49852;SDS011;35751;48.072;11.688;2023-06-22T10:42:04;15.07;;;7.35;;
49852;SDS011;35751;48.072;11.688;2023-06-22T10:44:29;13.07;;;6.03;;
49852;SDS011;35751;48.072;11.688;2023-06-22T10:46:55;13.80;;;6.75;;
49852;SDS011;35751;48.072;11.688;2023-06-22T10:49:20;15.88;;;6.55;;
49852;SDS011;35751;48.072;11.688;2023-06-22T10:51:45;17.02;;;7.30;;
49852;SDS011;35751;48.072;11.688;2023-06-22T10:54:11;16.80;;;11.05;;
49852;SDS011;35751;48.072;11.688;2023-06-22T10:56:38;12.88;;;6.25;;
49852;SDS011;35751;48.072;11.688;2023-06-22T10:59:04;13.55;;;6.25;;
49852;SDS011;35751;48.072;11.688;2023-06-22T11:01:30;12.68;;;6.75;;
49852;SDS011;35751;48.072;11.688;2023-06-22T11:03:56;19.45;;;7.70;;
49852;SDS011;35751;48.072;11.688;2023-06-22T11:06:22;11.85;;;7.30;;
49852;SDS011;35751;48.072;11.688;2023-06-22T11:08:47;14.02;;;6.05;;
49852;SDS011;35751;48.072;11.688;2023-06-22T11:11:12;13.98;;;6.43;;
49852;SDS011;35751;48.072;11.688;2023-06-22T11:13:38;11.02;;;6.13;;
49852;SDS011;35751;48.072;11.688;2023-06-22T11:16:03;14.27;;;7.28;;
49852;SDS011;35751;48.072;11.688;2023-06-22T11:18:28;11.80;;;7.07;;
49852;SDS011;35751;48.072;11.688;2023-06-22T11:20:54;15.25;;;6.45;;
49852;SDS011;35751;48.072;11.688;2023-06-22T11:23:19;10.85;;;6.35;;
49852;SDS011;35751;48.072;11.688;2023-06-22T11:25:44;14.40;;;7.45;;
49852;SDS011;35751;48.072;11.688;2023-06-22T11:28:11;16.55;;;6.65;;
49852;SDS011;35751;48.072;11.688;2023-06-22T11:30:36;11.50;;;6.35;;
49852;SDS011;35751;48.072;11.688;2023-06-22T11:33:01;11.55;;;6.18;;
49852;SDS011;35751;48.072;11.688;2023-06-22T11:35:27;14.13;;;7.10;;
49852;SDS011;35751;48.072;11.688;2023-06-22T11:37:52;14.02;;;6.10;;
49852;SDS011;35751;48.072;11.688;2023-06-22T11:40:17;22.15;;;7.68;;
49852;SDS011;35751;48.072;11.688;2023-06-22T11:42:43;15.57;;;6.43;;
49852;SDS011;35751;48.072;11.688;2023-06-22T11:45:09;14.20;;;7.32;;
49852;SDS011;35751;48.072;11.688;2023-06-22T11:47:34;15.13;;;7.15;;
49852;SDS011;35751;48.072;11.688;2023-06-22T11:50:00;12.25;;;7.40;;
49852;SDS011;35751;48.072;11.688;2023-06-22T11:52:25;16.77;;;6.30;;
49852;SDS011;35751;48.072;11.688;2023-06-22T11:54:52;18.92;;;6.43;;
49852;SDS011;35751;48.072;11.688;2023-06-22T11:57:17;19.05;;;7.18;;
49852;SDS011;35751;48.072;11.688;2023-06-22T11:59:42;12.73;;;6.20;;
49852;SDS011;35751;48.072;11.688;2023-06-22T12:02:08;16.70;;;6.97;;
49852;SDS011;35751;48.072;11.688;2023-06-22T12:04:34;15.15;;;6.13;;
49852;SDS011;35751;48.072;11.688;2023-06-22T12:07:00;15.20;;;6.72;;
49852;SDS011;35751;48.072;11.688;2023-06-22T12:09:25;14.07;;;6.60;;
49852;SDS011;35751;48.072;11.688;2023-06-22T12:11:50;12.65;;;6.40;;
49852;SDS011;35751;48.072;11.688;2023-06-22T12:14:16;16.05;;;7.18;;
49852;SDS011;35751;48.072;11.688;2023-06-22T12:16:41;22.25;;;7.72;;
49852;SDS011;35751;48.072;11.688;2023-06-22T12:19:08;13.52;;;6.43;;
49852;SDS011;35751;48.072;11.688;2023-06-22T12:21:37;12.10;;;6.95;;
49852;SDS011;35751;48.072;11.688;2023-06-22T12:24:03;21.65;;;6.85;;
49852;SDS011;35751;48.072;11.688;2023-06-22T12:26:29;11.73;;;5.93;;
49852;SDS011;35751;48.072;11.688;2023-06-22T12:28:55;12.60;;;6.57;;
49852;SDS011;35751;48.072;11.688;2023-06-22T12:31:20;12.23;;;6.35;;
49852;SDS011;35751;48.072;11.688;2023-06-22T12:33:45;15.55;;;7.05;;
49852;SDS011;35751;48.072;11.688;2023-06-22T12:36:11;16.10;;;6.68;;
49852;SDS011;35751;48.072;11.688;2023-06-22T12:38:36;17.67;;;6.97;;
49852;SDS011;35751;48.072;11.688;2023-06-22T12:41:01;13.52;;;5.68;;
49852;SDS011;35751;48.072;11.688;2023-06-22T12:43:27;16.48;;;6.22;;
49852;SDS011;35751;48.072;11.688;2023-06-22T12:45:52;20.48;;;8.23;;
49852;SDS011;35751;48.072;11.688;2023-06-22T12:48:18;17.02;;;6.90;;
49852;SDS011;35751;48.072;11.688;2023-06-22T12:50:43;11.95;;;6.40;;
49852;SDS011;35751;48.072;11.688;2023-06-22T12:53:09;15.57;;;7.32;;
49852;SDS011;35751;48.072;11.688;2023-06-22T12:55:37;12.18;;;6.65;;
49852;SDS011;35751;48.072;11.688;2023-06-22T12:58:02;16.02;;;6.32;;
49852;SDS011;35751;48.072;11.688;2023-06-22T13:00:28;68.65;;;13.48;;
49852;SDS011;35751;48.072;11.688;2023-06-22T13:02:53;14.25;;;5.88;;
49852;SDS011;35751;48.072;11.688;2023-06-22T13:05:19;12.70;;;6.05;;
49852;SDS011;35751;48.072;11.688;2023-06-22T13:07:44;16.35;;;7.22;;
49852;SDS011;35751;48.072;11.688;2023-06-22T13:10:10;16.02;;;7.38;;
49852;SDS011;35751;48.072;11.688;2023-06-22T13:12:36;14.43;;;6.95;;
49852;SDS011;35751;48.072;11.688;2023-06-22T13:15:01;12.00;;;6.07;;
49852;SDS011;35751;48.072;11.688;2023-06-22T13:17:28;16.13;;;6.07;;
49852;SDS011;35751;48.072;11.688;2023-06-22T13:19:53;14.18;;;6.15;;
49852;SDS011;35751;48.072;11.688;2023-06-22T13:22:37;12.70;;;6.43;;
49852;SDS011;35751;48.072;11.688;2023-06-22T13:25:07;14.32;;;5.78;;
49852;SDS011;35751;48.072;11.688;2023-06-22T13:27:36;15.20;;;6.93;;
49852;SDS011;35751;48.072;11.688;2023-06-22T13:30:02;43.75;;;11.48;;
49852;SDS011;35751;48.072;11.688;2023-06-22T13:32:28;14.90;;;6.47;;
49852;SDS011;35751;48.072;11.688;2023-06-22T13:34:53;14.73;;;7.18;;
49852;SDS011;35751;48.072;11.688;2023-06-22T13:37:19;17.05;;;7.28;;
49852;SDS011;35751;48.072;11.688;2023-06-22T13:39:44;15.85;;;5.80;;
49852;SDS011;35751;48.072;11.688;2023-06-22T13:42:09;19.70;;;6.15;;
49852;SDS011;35751;48.072;11.688;2023-06-22T13:44:35;17.17;;;6.07;;
49852;SDS011;35751;48.072;11.688;2023-06-22T13:47:00;18.63;;;6.55;;
49852;SDS011;35751;48.072;11.688;2023-06-22T13:49:25;13.45;;;6.25;;
49852;SDS011;35751;48.072;11.688;2023-06-22T13:51:51;13.27;;;5.72;;
49852;SDS011;35751;48.072;11.688;2023-06-22T13:54:16;15.95;;;6.10;;
49852;SDS011;35751;48.072;11.688;2023-06-22T13:56:42;16.08;;;7.13;;
49852;SDS011;35751;48.072;11.688;2023-06-22T13:59:07;21.05;;;5.95;;
49852;SDS011;35751;48.072;11.688;2023-06-22T14:01:37;18.75;;;7.35;;
49852;SDS011;35751;48.072;11.688;2023-06-22T14:04:06;10.68;;;5.63;;
49852;SDS011;35751;48.072;11.688;2023-06-22T14:06:35;14.77;;;5.55;;
49852;SDS011;35751;48.072;11.688;2023-06-22T14:09:00;16.30;;;5.70;;
49852;SDS011;35751;48.072;11.688;2023-06-22T14:11:26;14.15;;;6.20;;
49852;SDS011;35751;48.072;11.688;2023-06-22T14:13:51;12.93;;;5.85;;
49852;SDS011;35751;48.072;11.688;2023-06-22T14:16:17;13.20;;;7.47;;
49852;SDS011;35751;48.072;11.688;2023-06-22T14:18:44;10.13;;;5.93;;
49852;SDS011;35751;48.072;11.688;2023-06-22T14:21:09;12.63;;;5.72;;
49852;SDS011;35751;48.072;11.688;2023-06-22T14:23:35;14.85;;;6.13;;
49852;SDS011;35751;48.072;11.688;2023-06-22T14:26:00;11.98;;;5.10;;